sensor_id;sensor_type;location;lat;lon;timestamp;temperature;humidity
10566;DHT22;5331;48.148;16.326;2023-04-01T00:01:45;11.40;1.00
10566;DHT22;5331;48.148;16.326;2023-04-01T00:04:13;11.50;1.00
10566;DHT22;5331;48.148;16.326;2023-04-01T00:06:42;11.40;1.00
10566;DHT22;5331;48.148;16.326;2023-04-01T00:09:09;11.40;1.00
10566;DHT22;5331;48.148;16.326;2023-04-01T00:11:36;11.40;1.00
10566;DHT22;5331;48.148;16.326;2023-04-01T00:14:03;11.40;1.00
10566;DHT22;5331;48.148;16.326;2023-04-01T00:16:30;11.40;1.00
10566;DHT22;5331;48.148;16.326;2023-04-01T00:18:58;11.40;1.00
10566;DHT22;5331;48.148;16.326;2023-04-01T00:21:26;11.40;1.00
10566;DHT22;5331;48.148;16.326;2023-04-01T00:23:53;11.30;1.00
10566;DHT22;5331;48.148;16.326;2023-04-01T00:26:20;11.30;1.00
10566;DHT22;5331;48.148;16.326;2023-04-01T00:28:48;11.30;1.00
10566;DHT22;5331;48.148;16.326;2023-04-01T00:31:15;11.30;1.00
10566;DHT22;5331;48.148;16.326;2023-04-01T00:33:42;11.30;1.00
10566;DHT22;5331;48.148;16.326;2023-04-01T00:36:11;11.30;1.00
10566;DHT22;5331;48.148;16.326;2023-04-01T00:38:39;11.30;1.00
10566;DHT22;5331;48.148;16.326;2023-04-01T00:41:08;11.40;1.00
10566;DHT22;5331;48.148;16.326;2023-04-01T00:43:36;11.40;1.00
10566;DHT22;5331;48.148;16.326;2023-04-01T00:46:03;11.40;1.00
10566;DHT22;5331;48.148;16.326;2023-04-01T00:48:33;11.30;1.00
10566;DHT22;5331;48.148;16.326;2023-04-01T00:51:03;11.30;1.00
10566;DHT22;5331;48.148;16.326;2023-04-01T00:53:35;11.30;1.00
10566;DHT22;5331;48.148;16.326;2023-04-01T00:56:05;11.30;1.00
10566;DHT22;5331;48.148;16.326;2023-04-01T00:58:38;11.40;1.00
10566;DHT22;5331;48.148;16.326;2023-04-01T01:01:06;11.30;1.00
10566;DHT22;5331;48.148;16.326;2023-04-01T01:03:35;11.30;1.00
10566;DHT22;5331;48.148;16.326;2023-04-01T01:06:19;11.30;1.00
10566;DHT22;5331;48.148;16.326;2023-04-01T01:09:06;11.20;1.00
10566;DHT22;5331;48.148;16.326;2023-04-01T01:11:39;11.20;1.00
10566;DHT22;5331;48.148;16.326;2023-04-01T01:14:13;11.30;1.00
10566;DHT22;5331;48.148;16.326;2023-04-01T01:16:52;11.30;1.00
10566;DHT22;5331;48.148;16.326;2023-04-01T01:19:41;11.10;1.00
10566;DHT22;5331;48.148;16.326;2023-04-01T01:22:33;11.20;1.00
10566;DHT22;5331;48.148;16.326;2023-04-01T01:25:18;11.20;1.00
10566;DHT22;5331;48.148;16.326;2023-04-01T01:27:56;11.10;1.00
10566;DHT22;5331;48.148;16.326;2023-04-01T01:30:39;11.10;1.00
10566;DHT22;5331;48.148;16.326;2023-04-01T01:33:25;11.20;1.00
10566;DHT22;5331;48.148;16.326;2023-04-01T01:35:59;11.10;1.00
10566;DHT22;5331;48.148;16.326;2023-04-01T01:38:31;11.00;1.00
10566;DHT22;5331;48.148;16.326;2023-04-01T01:41:00;11.00;1.00
10566;DHT22;5331;48.148;16.326;2023-04-01T01:43:31;11.00;1.00
10566;DHT22;5331;48.148;16.326;2023-04-01T01:46:01;11.10;1.00
10566;DHT22;5331;48.148;16.326;2023-04-01T01:48:31;11.00;1.00
10566;DHT22;5331;48.148;16.326;2023-04-01T01:51:00;11.00;1.00
10566;DHT22;5331;48.148;16.326;2023-04-01T01:53:28;11.00;1.00
10566;DHT22;5331;48.148;16.326;2023-04-01T01:55:54;11.00;1.00
10566;DHT22;5331;48.148;16.326;2023-04-01T01:58:24;11.00;1.00
10566;DHT22;5331;48.148;16.326;2023-04-01T02:00:54;10.90;1.00
10566;DHT22;5331;48.148;16.326;2023-04-01T02:03:24;10.90;1.00
10566;DHT22;5331;48.148;16.326;2023-04-01T02:05:53;10.90;1.00
10566;DHT22;5331;48.148;16.326;2023-04-01T02:08:26;10.80;1.00
10566;DHT22;5331;48.148;16.326;2023-04-01T02:10:58;10.80;1.00
10566;DHT22;5331;48.148;16.326;2023-04-01T02:13:30;10.80;1.00
10566;DHT22;5331;48.148;16.326;2023-04-01T02:16:03;10.80;1.00
10566;DHT22;5331;48.148;16.326;2023-04-01T02:18:35;10.80;1.00
10566;DHT22;5331;48.148;16.326;2023-04-01T02:21:04;10.80;1.00
10566;DHT22;5331;48.148;16.326;2023-04-01T02:23:35;10.80;1.00
10566;DHT22;5331;48.148;16.326;2023-04-01T02:26:05;10.80;1.00
10566;DHT22;5331;48.148;16.326;2023-04-01T02:28:34;10.80;1.00
10566;DHT22;5331;48.148;16.326;2023-04-01T02:31:02;10.80;1.00
10566;DHT22;5331;48.148;16.326;2023-04-01T02:33:30;10.70;1.00
10566;DHT22;5331;48.148;16.326;2023-04-01T02:35:57;10.80;1.00
10566;DHT22;5331;48.148;16.326;2023-04-01T02:38:25;10.80;1.00
10566;DHT22;5331;48.148;16.326;2023-04-01T02:40:59;10.80;1.00
10566;DHT22;5331;48.148;16.326;2023-04-01T02:43:27;10.80;1.00
10566;DHT22;5331;48.148;16.326;2023-04-01T02:45:54;10.80;1.00
10566;DHT22;5331;48.148;16.326;2023-04-01T02:48:21;10.70;1.00
10566;DHT22;5331;48.148;16.326;2023-04-01T02:50:48;10.70;1.00
10566;DHT22;5331;48.148;16.326;2023-04-01T02:53:16;10.70;1.00
10566;DHT22;5331;48.148;16.326;2023-04-01T02:55:43;10.60;1.00
10566;DHT22;5331;48.148;16.326;2023-04-01T02:58:12;10.60;1.00
10566;DHT22;5331;48.148;16.326;2023-04-01T03:00:40;10.60;1.00
10566;DHT22;5331;48.148;16.326;2023-04-01T03:03:07;10.50;1.00
10566;DHT22;5331;48.148;16.326;2023-04-01T03:05:34;10.50;1.00
10566;DHT22;5331;48.148;16.326;2023-04-01T03:08:01;10.50;1.00
10566;DHT22;5331;48.148;16.326;2023-04-01T03:10:28;10.40;1.00
10566;DHT22;5331;48.148;16.326;2023-04-01T03:12:55;10.40;1.00
10566;DHT22;5331;48.148;16.326;2023-04-01T03:15:23;10.50;1.00
10566;DHT22;5331;48.148;16.326;2023-04-01T03:17:50;10.40;1.00
10566;DHT22;5331;48.148;16.326;2023-04-01T03:20:17;10.30;1.00
10566;DHT22;5331;48.148;16.326;2023-04-01T03:22:44;10.30;1.00
10566;DHT22;5331;48.148;16.326;2023-04-01T03:25:12;10.30;1.00
10566;DHT22;5331;48.148;16.326;2023-04-01T03:27:39;10.30;1.00
10566;DHT22;5331;48.148;16.326;2023-04-01T03:30:07;10.20;1.00
10566;DHT22;5331;48.148;16.326;2023-04-01T03:32:36;10.20;1.00
10566;DHT22;5331;48.148;16.326;2023-04-01T03:35:04;10.10;1.00
10566;DHT22;5331;48.148;16.326;2023-04-01T03:37:31;10.10;1.00
10566;DHT22;5331;48.148;16.326;2023-04-01T03:39:58;10.10;1.00
10566;DHT22;5331;48.148;16.326;2023-04-01T03:42:25;10.10;1.00
10566;DHT22;5331;48.148;16.326;2023-04-01T03:44:52;10.10;1.00
10566;DHT22;5331;48.148;16.326;2023-04-01T03:47:19;10.10;1.00
10566;DHT22;5331;48.148;16.326;2023-04-01T03:49:48;10.10;1.00
10566;DHT22;5331;48.148;16.326;2023-04-01T03:52:15;10.10;1.00
10566;DHT22;5331;48.148;16.326;2023-04-01T03:54:42;10.10;1.00
10566;DHT22;5331;48.148;16.326;2023-04-01T03:57:09;10.10;1.00
10566;DHT22;5331;48.148;16.326;2023-04-01T03:59:36;10.10;1.00
10566;DHT22;5331;48.148;16.326;2023-04-01T04:02:03;10.10;1.00
10566;DHT22;5331;48.148;16.326;2023-04-01T04:04:30;10.20;1.00
10566;DHT22;5331;48.148;16.326;2023-04-01T04:06:59;10.20;1.00
10566;DHT22;5331;48.148;16.326;2023-04-01T04:09:26;10.20;1.00
10566;DHT22;5331;48.148;16.326;2023-04-01T04:11:53;10.20;1.00
10566;DHT22;5331;48.148;16.326;2023-04-01T04:14:20;10.30;1.00
10566;DHT22;5331;48.148;16.326;2023-04-01T04:16:47;10.30;1.00
10566;DHT22;5331;48.148;16.326;2023-04-01T04:19:14;10.30;1.00
10566;DHT22;5331;48.148;16.326;2023-04-01T04:21:41;10.40;1.00
10566;DHT22;5331;48.148;16.326;2023-04-01T04:24:10;10.40;1.00
10566;DHT22;5331;48.148;16.326;2023-04-01T04:26:37;10.40;1.00
10566;DHT22;5331;48.148;16.326;2023-04-01T04:29:04;10.40;1.00
10566;DHT22;5331;48.148;16.326;2023-04-01T04:31:31;10.40;1.00
10566;DHT22;5331;48.148;16.326;2023-04-01T04:33:59;10.40;1.00
10566;DHT22;5331;48.148;16.326;2023-04-01T04:36:26;10.40;1.00
10566;DHT22;5331;48.148;16.326;2023-04-01T04:38:53;10.40;1.00
10566;DHT22;5331;48.148;16.326;2023-04-01T04:41:22;10.40;1.00
10566;DHT22;5331;48.148;16.326;2023-04-01T04:43:50;10.40;1.00
10566;DHT22;5331;48.148;16.326;2023-04-01T04:46:18;10.30;1.00
10566;DHT22;5331;48.148;16.326;2023-04-01T04:48:45;10.30;1.00
10566;DHT22;5331;48.148;16.326;2023-04-01T04:51:14;10.30;1.00
10566;DHT22;5331;48.148;16.326;2023-04-01T04:53:41;10.40;1.00
10566;DHT22;5331;48.148;16.326;2023-04-01T04:56:08;10.30;1.00
10566;DHT22;5331;48.148;16.326;2023-04-01T04:58:37;10.30;1.00
10566;DHT22;5331;48.148;16.326;2023-04-01T05:01:08;10.20;1.00
10566;DHT22;5331;48.148;16.326;2023-04-01T05:03:36;10.20;1.00
10566;DHT22;5331;48.148;16.326;2023-04-01T05:06:03;10.20;1.00
10566;DHT22;5331;48.148;16.326;2023-04-01T05:08:31;10.20;1.00
10566;DHT22;5331;48.148;16.326;2023-04-01T05:10:58;10.20;1.00
10566;DHT22;5331;48.148;16.326;2023-04-01T05:13:25;10.20;1.00
10566;DHT22;5331;48.148;16.326;2023-04-01T05:15:53;10.20;1.00
10566;DHT22;5331;48.148;16.326;2023-04-01T05:18:21;10.20;1.00
10566;DHT22;5331;48.148;16.326;2023-04-01T05:20:49;10.20;1.00
10566;DHT22;5331;48.148;16.326;2023-04-01T05:23:17;10.30;1.00
10566;DHT22;5331;48.148;16.326;2023-04-01T05:25:44;10.30;1.00
10566;DHT22;5331;48.148;16.326;2023-04-01T05:28:11;10.30;1.00
10566;DHT22;5331;48.148;16.326;2023-04-01T05:30:39;10.30;1.00
10566;DHT22;5331;48.148;16.326;2023-04-01T05:33:08;10.30;1.00
10566;DHT22;5331;48.148;16.326;2023-04-01T05:35:36;10.30;1.00
10566;DHT22;5331;48.148;16.326;2023-04-01T05:38:03;10.40;1.00
10566;DHT22;5331;48.148;16.326;2023-04-01T05:40:31;10.50;1.00
10566;DHT22;5331;48.148;16.326;2023-04-01T05:42:58;10.50;1.00
10566;DHT22;5331;48.148;16.326;2023-04-01T05:45:25;10.50;1.00
10566;DHT22;5331;48.148;16.326;2023-04-01T05:47:53;10.60;1.00
10566;DHT22;5331;48.148;16.326;2023-04-01T05:50:21;10.70;1.00
10566;DHT22;5331;48.148;16.326;2023-04-01T05:52:48;10.80;1.00
10566;DHT22;5331;48.148;16.326;2023-04-01T05:55:15;10.90;1.00
10566;DHT22;5331;48.148;16.326;2023-04-01T05:57:44;11.10;1.00
10566;DHT22;5331;48.148;16.326;2023-04-01T06:00:13;11.50;1.00
10566;DHT22;5331;48.148;16.326;2023-04-01T06:02:40;12.40;1.00
10566;DHT22;5331;48.148;16.326;2023-04-01T06:05:18;13.20;1.00
10566;DHT22;5331;48.148;16.326;2023-04-01T06:07:47;14.00;1.00
10566;DHT22;5331;48.148;16.326;2023-04-01T06:10:16;14.40;1.00
10566;DHT22;5331;48.148;16.326;2023-04-01T06:13:00;14.30;1.00
10566;DHT22;5331;48.148;16.326;2023-04-01T06:15:36;14.20;1.00
10566;DHT22;5331;48.148;16.326;2023-04-01T06:18:21;14.20;1.00
10566;DHT22;5331;48.148;16.326;2023-04-01T06:20:59;14.30;1.00
10566;DHT22;5331;48.148;16.326;2023-04-01T06:23:43;14.80;1.00
10566;DHT22;5331;48.148;16.326;2023-04-01T06:26:21;15.00;1.00
10566;DHT22;5331;48.148;16.326;2023-04-01T06:29:10;15.20;1.00
10566;DHT22;5331;48.148;16.326;2023-04-01T06:31:51;15.10;1.00
10566;DHT22;5331;48.148;16.326;2023-04-01T06:34:53;15.30;1.00
10566;DHT22;5331;48.148;16.326;2023-04-01T06:37:49;15.50;1.00
10566;DHT22;5331;48.148;16.326;2023-04-01T06:40:52;15.20;1.00
10566;DHT22;5331;48.148;16.326;2023-04-01T06:43:27;14.90;1.00
10566;DHT22;5331;48.148;16.326;2023-04-01T06:46:05;14.70;1.00
10566;DHT22;5331;48.148;16.326;2023-04-01T06:48:42;14.90;1.00
10566;DHT22;5331;48.148;16.326;2023-04-01T06:51:21;15.10;1.00
10566;DHT22;5331;48.148;16.326;2023-04-01T06:53:55;15.20;1.00
10566;DHT22;5331;48.148;16.326;2023-04-01T06:56:27;15.30;1.00
10566;DHT22;5331;48.148;16.326;2023-04-01T06:58:58;15.20;1.00
10566;DHT22;5331;48.148;16.326;2023-04-01T07:01:29;15.00;1.00
10566;DHT22;5331;48.148;16.326;2023-04-01T07:04:01;15.40;1.00
10566;DHT22;5331;48.148;16.326;2023-04-01T07:06:36;15.40;1.00
10566;DHT22;5331;48.148;16.326;2023-04-01T07:09:08;15.60;1.00
10566;DHT22;5331;48.148;16.326;2023-04-01T07:11:38;15.90;1.00
10566;DHT22;5331;48.148;16.326;2023-04-01T07:14:13;16.30;1.00
10566;DHT22;5331;48.148;16.326;2023-04-01T07:16:46;16.40;1.00
10566;DHT22;5331;48.148;16.326;2023-04-01T07:19:21;16.60;1.00
10566;DHT22;5331;48.148;16.326;2023-04-01T07:21:51;16.40;1.00
10566;DHT22;5331;48.148;16.326;2023-04-01T07:24:23;16.70;1.00
10566;DHT22;5331;48.148;16.326;2023-04-01T07:26:55;16.70;1.00
10566;DHT22;5331;48.148;16.326;2023-04-01T07:29:23;17.10;1.00
10566;DHT22;5331;48.148;16.326;2023-04-01T07:32:20;17.00;1.00
10566;DHT22;5331;48.148;16.326;2023-04-01T07:35:07;17.00;1.00
10566;DHT22;5331;48.148;16.326;2023-04-01T07:37:42;16.90;1.00
10566;DHT22;5331;48.148;16.326;2023-04-01T07:40:20;16.90;1.00
10566;DHT22;5331;48.148;16.326;2023-04-01T07:43:03;17.00;1.00
10566;DHT22;5331;48.148;16.326;2023-04-01T07:45:37;17.20;1.00
10566;DHT22;5331;48.148;16.326;2023-04-01T07:48:18;17.40;1.00
10566;DHT22;5331;48.148;16.326;2023-04-01T07:50:50;17.30;1.00
10566;DHT22;5331;48.148;16.326;2023-04-01T07:53:27;17.10;1.00
10566;DHT22;5331;48.148;16.326;2023-04-01T07:56:02;17.30;1.00
10566;DHT22;5331;48.148;16.326;2023-04-01T07:58:39;17.70;1.00
10566;DHT22;5331;48.148;16.326;2023-04-01T08:01:17;18.30;1.00
10566;DHT22;5331;48.148;16.326;2023-04-01T08:04:08;18.50;1.00
10566;DHT22;5331;48.148;16.326;2023-04-01T08:06:44;18.30;1.00
10566;DHT22;5331;48.148;16.326;2023-04-01T08:09:20;18.20;1.00
10566;DHT22;5331;48.148;16.326;2023-04-01T08:12:00;18.40;1.00
10566;DHT22;5331;48.148;16.326;2023-04-01T08:14:39;18.20;1.00
10566;DHT22;5331;48.148;16.326;2023-04-01T08:17:13;18.30;1.00
10566;DHT22;5331;48.148;16.326;2023-04-01T08:20:00;18.50;1.00
10566;DHT22;5331;48.148;16.326;2023-04-01T08:22:37;18.10;1.00
10566;DHT22;5331;48.148;16.326;2023-04-01T08:25:06;17.30;1.00
10566;DHT22;5331;48.148;16.326;2023-04-01T08:27:39;17.20;1.00
10566;DHT22;5331;48.148;16.326;2023-04-01T08:30:17;17.60;1.00
10566;DHT22;5331;48.148;16.326;2023-04-01T08:32:48;17.70;1.00
10566;DHT22;5331;48.148;16.326;2023-04-01T08:35:26;17.90;1.00
10566;DHT22;5331;48.148;16.326;2023-04-01T08:37:55;17.10;1.00
10566;DHT22;5331;48.148;16.326;2023-04-01T08:40:52;17.20;1.00
10566;DHT22;5331;48.148;16.326;2023-04-01T08:43:42;17.60;1.00
10566;DHT22;5331;48.148;16.326;2023-04-01T08:46:32;17.20;1.00
10566;DHT22;5331;48.148;16.326;2023-04-01T08:49:17;16.80;1.00
10566;DHT22;5331;48.148;16.326;2023-04-01T08:52:21;16.50;1.00
10566;DHT22;5331;48.148;16.326;2023-04-01T08:55:04;16.50;1.00
10566;DHT22;5331;48.148;16.326;2023-04-01T08:57:44;16.60;1.00
10566;DHT22;5331;48.148;16.326;2023-04-01T09:00:24;16.40;1.00
10566;DHT22;5331;48.148;16.326;2023-04-01T09:03:24;16.40;1.00
10566;DHT22;5331;48.148;16.326;2023-04-01T09:09:00;16.50;1.00
10566;DHT22;5331;48.148;16.326;2023-04-01T09:11:39;16.80;1.00
10566;DHT22;5331;48.148;16.326;2023-04-01T09:14:44;17.10;1.00
10566;DHT22;5331;48.148;16.326;2023-04-01T09:17:38;17.00;1.00
10566;DHT22;5331;48.148;16.326;2023-04-01T09:20:44;16.70;1.00
10566;DHT22;5331;48.148;16.326;2023-04-01T09:23:29;16.80;1.00
10566;DHT22;5331;48.148;16.326;2023-04-01T09:26:14;17.10;1.00
10566;DHT22;5331;48.148;16.326;2023-04-01T09:28:49;17.30;1.00
10566;DHT22;5331;48.148;16.326;2023-04-01T09:31:54;16.70;1.00
10566;DHT22;5331;48.148;16.326;2023-04-01T09:34:52;16.30;1.00
10566;DHT22;5331;48.148;16.326;2023-04-01T09:37:32;16.00;1.00
10566;DHT22;5331;48.148;16.326;2023-04-01T09:40:21;15.80;1.00
10566;DHT22;5331;48.148;16.326;2023-04-01T09:43:06;16.00;1.00
10566;DHT22;5331;48.148;16.326;2023-04-01T09:45:47;16.60;1.00
10566;DHT22;5331;48.148;16.326;2023-04-01T09:48:39;16.90;1.00
10566;DHT22;5331;48.148;16.326;2023-04-01T09:51:17;17.20;1.00
10566;DHT22;5331;48.148;16.326;2023-04-01T09:54:01;17.20;1.00
10566;DHT22;5331;48.148;16.326;2023-04-01T09:56:53;17.10;1.00
10566;DHT22;5331;48.148;16.326;2023-04-01T09:59:50;16.80;1.00
10566;DHT22;5331;48.148;16.326;2023-04-01T10:02:52;17.10;1.00
10566;DHT22;5331;48.148;16.326;2023-04-01T10:12:29;17.20;1.00
10566;DHT22;5331;48.148;16.326;2023-04-01T10:15:22;17.70;1.00
10566;DHT22;5331;48.148;16.326;2023-04-01T10:18:18;17.40;1.00
10566;DHT22;5331;48.148;16.326;2023-04-01T10:21:05;17.20;1.00
10566;DHT22;5331;48.148;16.326;2023-04-01T10:23:54;16.70;1.00
10566;DHT22;5331;48.148;16.326;2023-04-01T10:26:36;16.30;1.00
10566;DHT22;5331;48.148;16.326;2023-04-01T10:35:34;15.70;1.00
10566;DHT22;5331;48.148;16.326;2023-04-01T10:38:42;15.50;1.00
10566;DHT22;5331;48.148;16.326;2023-04-01T10:44:51;15.30;1.00
10566;DHT22;5331;48.148;16.326;2023-04-01T10:47:57;15.40;1.00
10566;DHT22;5331;48.148;16.326;2023-04-01T10:56:42;15.70;1.00
10566;DHT22;5331;48.148;16.326;2023-04-01T11:21:46;16.30;1.00
10566;DHT22;5331;48.148;16.326;2023-04-01T11:24:36;16.20;1.00
10566;DHT22;5331;48.148;16.326;2023-04-01T11:27:19;16.30;1.00
10566;DHT22;5331;48.148;16.326;2023-04-01T11:30:10;16.40;1.00
10566;DHT22;5331;48.148;16.326;2023-04-01T11:32:52;16.40;1.00
10566;DHT22;5331;48.148;16.326;2023-04-01T11:38:26;16.40;1.00
10566;DHT22;5331;48.148;16.326;2023-04-01T11:41:03;16.30;1.00
10566;DHT22;5331;48.148;16.326;2023-04-01T11:43:38;16.00;1.00
10566;DHT22;5331;48.148;16.326;2023-04-01T11:46:11;15.90;1.00
10566;DHT22;5331;48.148;16.326;2023-04-01T11:48:50;15.80;1.00
10566;DHT22;5331;48.148;16.326;2023-04-01T11:54:34;15.80;1.00
10566;DHT22;5331;48.148;16.326;2023-04-01T11:57:18;15.90;1.00
10566;DHT22;5331;48.148;16.326;2023-04-01T12:00:02;16.30;1.00
10566;DHT22;5331;48.148;16.326;2023-04-01T12:02:44;16.30;1.00
10566;DHT22;5331;48.148;16.326;2023-04-01T12:05:38;16.50;1.00
10566;DHT22;5331;48.148;16.326;2023-04-01T12:08:19;16.60;1.00
10566;DHT22;5331;48.148;16.326;2023-04-01T12:10:56;16.80;1.00
10566;DHT22;5331;48.148;16.326;2023-04-01T12:13:38;17.00;1.00
10566;DHT22;5331;48.148;16.326;2023-04-01T12:16:26;17.20;1.00
10566;DHT22;5331;48.148;16.326;2023-04-01T12:18:58;17.20;1.00
10566;DHT22;5331;48.148;16.326;2023-04-01T12:21:32;17.10;1.00
10566;DHT22;5331;48.148;16.326;2023-04-01T12:24:33;17.00;1.00
10566;DHT22;5331;48.148;16.326;2023-04-01T12:30:24;16.60;1.00
10566;DHT22;5331;48.148;16.326;2023-04-01T12:33:10;16.80;1.00
10566;DHT22;5331;48.148;16.326;2023-04-01T12:35:52;16.80;1.00
10566;DHT22;5331;48.148;16.326;2023-04-01T12:38:31;16.90;1.00
10566;DHT22;5331;48.148;16.326;2023-04-01T12:41:16;17.10;1.00
10566;DHT22;5331;48.148;16.326;2023-04-01T12:44:19;17.40;1.00
10566;DHT22;5331;48.148;16.326;2023-04-01T12:47:12;17.80;1.00
10566;DHT22;5331;48.148;16.326;2023-04-01T12:52:46;17.30;1.00
10566;DHT22;5331;48.148;16.326;2023-04-01T12:55:35;16.90;1.00
10566;DHT22;5331;48.148;16.326;2023-04-01T13:01:46;16.90;1.00
10566;DHT22;5331;48.148;16.326;2023-04-01T13:04:47;17.10;1.00
10566;DHT22;5331;48.148;16.326;2023-04-01T13:07:32;17.20;1.00
10566;DHT22;5331;48.148;16.326;2023-04-01T13:10:06;17.40;1.00
10566;DHT22;5331;48.148;16.326;2023-04-01T13:13:03;17.50;1.00
10566;DHT22;5331;48.148;16.326;2023-04-01T13:15:41;17.80;1.00
10566;DHT22;5331;48.148;16.326;2023-04-01T13:18:21;18.00;1.00
10566;DHT22;5331;48.148;16.326;2023-04-01T13:20:57;17.90;1.00
10566;DHT22;5331;48.148;16.326;2023-04-01T13:23:45;18.00;1.00
10566;DHT22;5331;48.148;16.326;2023-04-01T13:26:21;18.20;1.00
10566;DHT22;5331;48.148;16.326;2023-04-01T13:28:53;18.30;1.00
10566;DHT22;5331;48.148;16.326;2023-04-01T13:31:35;18.40;1.00
10566;DHT22;5331;48.148;16.326;2023-04-01T13:34:16;18.30;1.00
10566;DHT22;5331;48.148;16.326;2023-04-01T13:36:54;18.00;1.00
10566;DHT22;5331;48.148;16.326;2023-04-01T13:39:32;17.80;1.00
10566;DHT22;5331;48.148;16.326;2023-04-01T13:42:19;17.50;1.00
10566;DHT22;5331;48.148;16.326;2023-04-01T13:44:55;17.40;1.00
10566;DHT22;5331;48.148;16.326;2023-04-01T13:47:38;17.60;1.00
10566;DHT22;5331;48.148;16.326;2023-04-01T13:50:38;17.70;1.00
10566;DHT22;5331;48.148;16.326;2023-04-01T13:53:39;17.70;1.00
10566;DHT22;5331;48.148;16.326;2023-04-01T13:56:16;17.80;1.00
10566;DHT22;5331;48.148;16.326;2023-04-01T13:59:03;18.00;1.00
10566;DHT22;5331;48.148;16.326;2023-04-01T14:01:37;18.00;1.00
10566;DHT22;5331;48.148;16.326;2023-04-01T14:07:18;17.50;1.00
10566;DHT22;5331;48.148;16.326;2023-04-01T14:10:02;17.50;1.00
10566;DHT22;5331;48.148;16.326;2023-04-01T14:12:38;17.60;1.00
10566;DHT22;5331;48.148;16.326;2023-04-01T14:18:37;17.40;1.00
10566;DHT22;5331;48.148;16.326;2023-04-01T14:21:16;17.20;1.00
10566;DHT22;5331;48.148;16.326;2023-04-01T14:24:09;17.30;1.00
10566;DHT22;5331;48.148;16.326;2023-04-01T14:30:03;17.40;1.00
10566;DHT22;5331;48.148;16.326;2023-04-01T14:32:39;17.40;1.00
10566;DHT22;5331;48.148;16.326;2023-04-01T14:35:31;17.20;1.00
10566;DHT22;5331;48.148;16.326;2023-04-01T14:38:24;17.00;1.00
10566;DHT22;5331;48.148;16.326;2023-04-01T14:40:56;16.80;1.00
10566;DHT22;5331;48.148;16.326;2023-04-01T14:49:53;16.20;1.00
10566;DHT22;5331;48.148;16.326;2023-04-01T14:52:28;16.10;1.00
10566;DHT22;5331;48.148;16.326;2023-04-01T14:55:00;16.20;1.00
10566;DHT22;5331;48.148;16.326;2023-04-01T14:57:31;16.20;1.00
10566;DHT22;5331;48.148;16.326;2023-04-01T15:00:01;16.30;1.00
10566;DHT22;5331;48.148;16.326;2023-04-01T15:02:41;16.30;1.00
10566;DHT22;5331;48.148;16.326;2023-04-01T15:05:26;16.30;1.00
10566;DHT22;5331;48.148;16.326;2023-04-01T15:08:05;16.40;1.00
10566;DHT22;5331;48.148;16.326;2023-04-01T15:10:46;16.50;1.00
10566;DHT22;5331;48.148;16.326;2023-04-01T15:13:24;16.60;1.00
10566;DHT22;5331;48.148;16.326;2023-04-01T15:16:02;16.60;1.00
10566;DHT22;5331;48.148;16.326;2023-04-01T15:18:41;16.60;1.00
10566;DHT22;5331;48.148;16.326;2023-04-01T15:21:37;16.60;1.00
10566;DHT22;5331;48.148;16.326;2023-04-01T15:24:16;16.50;1.00
10566;DHT22;5331;48.148;16.326;2023-04-01T15:27:10;16.60;1.00
10566;DHT22;5331;48.148;16.326;2023-04-01T15:29:52;16.40;1.00
10566;DHT22;5331;48.148;16.326;2023-04-01T15:32:28;16.20;1.00
10566;DHT22;5331;48.148;16.326;2023-04-01T15:35:03;16.20;1.00
10566;DHT22;5331;48.148;16.326;2023-04-01T15:37:41;16.10;1.00
10566;DHT22;5331;48.148;16.326;2023-04-01T15:40:20;15.90;1.00
10566;DHT22;5331;48.148;16.326;2023-04-01T15:43:03;15.80;1.00
10566;DHT22;5331;48.148;16.326;2023-04-01T15:45:48;15.80;1.00
10566;DHT22;5331;48.148;16.326;2023-04-01T15:48:41;15.70;1.00
10566;DHT22;5331;48.148;16.326;2023-04-01T15:51:27;15.70;1.00
10566;DHT22;5331;48.148;16.326;2023-04-01T15:57:11;15.40;1.00
10566;DHT22;5331;48.148;16.326;2023-04-01T16:00:06;15.30;1.00
10566;DHT22;5331;48.148;16.326;2023-04-01T16:02:45;15.20;1.00
10566;DHT22;5331;48.148;16.326;2023-04-01T16:05:27;15.10;1.00
10566;DHT22;5331;48.148;16.326;2023-04-01T16:10:56;15.20;1.00
10566;DHT22;5331;48.148;16.326;2023-04-01T16:13:34;15.20;1.00
10566;DHT22;5331;48.148;16.326;2023-04-01T16:16:13;15.20;1.00
10566;DHT22;5331;48.148;16.326;2023-04-01T16:19:03;15.20;1.00
10566;DHT22;5331;48.148;16.326;2023-04-01T16:21:40;15.30;1.00
10566;DHT22;5331;48.148;16.326;2023-04-01T16:24:17;15.10;1.00
10566;DHT22;5331;48.148;16.326;2023-04-01T16:26:51;15.10;1.00
10566;DHT22;5331;48.148;16.326;2023-04-01T16:29:26;15.00;1.00
10566;DHT22;5331;48.148;16.326;2023-04-01T16:32:00;15.00;1.00
10566;DHT22;5331;48.148;16.326;2023-04-01T16:34:35;14.80;1.00
10566;DHT22;5331;48.148;16.326;2023-04-01T16:37:09;14.60;1.00
10566;DHT22;5331;48.148;16.326;2023-04-01T16:39:46;14.60;1.00
10566;DHT22;5331;48.148;16.326;2023-04-01T16:42:34;14.40;1.00
10566;DHT22;5331;48.148;16.326;2023-04-01T16:45:21;14.30;1.00
10566;DHT22;5331;48.148;16.326;2023-04-01T16:47:55;14.30;1.00
10566;DHT22;5331;48.148;16.326;2023-04-01T16:50:28;14.30;1.00
10566;DHT22;5331;48.148;16.326;2023-04-01T16:53:08;14.20;1.00
10566;DHT22;5331;48.148;16.326;2023-04-01T16:55:45;14.20;1.00
10566;DHT22;5331;48.148;16.326;2023-04-01T16:58:20;14.10;1.00
10566;DHT22;5331;48.148;16.326;2023-04-01T17:00:50;14.00;1.00
10566;DHT22;5331;48.148;16.326;2023-04-01T17:03:25;13.90;1.00
10566;DHT22;5331;48.148;16.326;2023-04-01T17:06:14;13.80;1.00
10566;DHT22;5331;48.148;16.326;2023-04-01T17:08:58;13.70;1.00
10566;DHT22;5331;48.148;16.326;2023-04-01T17:11:28;13.50;1.00
10566;DHT22;5331;48.148;16.326;2023-04-01T17:14:08;13.40;1.00
10566;DHT22;5331;48.148;16.326;2023-04-01T17:16:56;13.30;1.00
10566;DHT22;5331;48.148;16.326;2023-04-01T17:19:40;13.10;1.00
10566;DHT22;5331;48.148;16.326;2023-04-01T17:22:25;13.00;1.00
10566;DHT22;5331;48.148;16.326;2023-04-01T17:25:04;12.90;1.00
10566;DHT22;5331;48.148;16.326;2023-04-01T17:27:42;12.90;1.00
10566;DHT22;5331;48.148;16.326;2023-04-01T17:30:31;12.80;1.00
10566;DHT22;5331;48.148;16.326;2023-04-01T17:35:58;12.70;1.00
10566;DHT22;5331;48.148;16.326;2023-04-01T17:38:56;12.50;1.00
10566;DHT22;5331;48.148;16.326;2023-04-01T17:41:40;12.40;1.00
10566;DHT22;5331;48.148;16.326;2023-04-01T17:44:26;12.30;1.00
10566;DHT22;5331;48.148;16.326;2023-04-01T17:47:18;12.20;1.00
10566;DHT22;5331;48.148;16.326;2023-04-01T17:49:56;12.20;1.00
10566;DHT22;5331;48.148;16.326;2023-04-01T17:52:33;12.10;1.00
10566;DHT22;5331;48.148;16.326;2023-04-01T17:58:02;12.00;1.00
10566;DHT22;5331;48.148;16.326;2023-04-01T18:00:36;11.90;1.00
10566;DHT22;5331;48.148;16.326;2023-04-01T18:03:13;11.80;1.00
10566;DHT22;5331;48.148;16.326;2023-04-01T18:05:56;11.80;1.00
10566;DHT22;5331;48.148;16.326;2023-04-01T18:08:40;11.80;1.00
10566;DHT22;5331;48.148;16.326;2023-04-01T18:11:34;11.80;1.00
10566;DHT22;5331;48.148;16.326;2023-04-01T18:17:12;11.70;1.00
10566;DHT22;5331;48.148;16.326;2023-04-01T18:19:58;11.60;1.00
10566;DHT22;5331;48.148;16.326;2023-04-01T18:22:33;11.60;1.00